sensor_id;sensor_type;location;lat;lon;timestamp;temperature;humidity
20650;DHT22;10484;48.736;9.332;2024-02-26T00:00:31;7.50;1.00
20650;DHT22;10484;48.736;9.332;2024-02-26T00:02:57;7.50;1.00
20650;DHT22;10484;48.736;9.332;2024-02-26T00:05:23;7.40;1.00
20650;DHT22;10484;48.736;9.332;2024-02-26T00:07:48;7.40;1.00
20650;DHT22;10484;48.736;9.332;2024-02-26T00:10:14;7.40;1.00
20650;DHT22;10484;48.736;9.332;2024-02-26T00:12:40;7.30;1.00
20650;DHT22;10484;48.736;9.332;2024-02-26T00:15:09;7.30;1.00
20650;DHT22;10484;48.736;9.332;2024-02-26T00:17:35;7.20;1.00
20650;DHT22;10484;48.736;9.332;2024-02-26T00:20:02;7.20;1.00
20650;DHT22;10484;48.736;9.332;2024-02-26T00:22:30;7.20;1.00
20650;DHT22;10484;48.736;9.332;2024-02-26T00:24:56;7.10;1.00
20650;DHT22;10484;48.736;9.332;2024-02-26T00:27:21;7.10;1.00
20650;DHT22;10484;48.736;9.332;2024-02-26T00:29:47;7.10;1.00
20650;DHT22;10484;48.736;9.332;2024-02-26T00:32:12;7.00;1.00
20650;DHT22;10484;48.736;9.332;2024-02-26T00:34:38;7.00;1.00
20650;DHT22;10484;48.736;9.332;2024-02-26T00:37:03;7.00;1.00
20650;DHT22;10484;48.736;9.332;2024-02-26T00:39:29;7.00;1.00
20650;DHT22;10484;48.736;9.332;2024-02-26T00:41:55;7.00;1.00
20650;DHT22;10484;48.736;9.332;2024-02-26T00:44:20;7.00;1.00
20650;DHT22;10484;48.736;9.332;2024-02-26T00:46:46;7.00;1.00
20650;DHT22;10484;48.736;9.332;2024-02-26T00:49:11;7.00;1.00
20650;DHT22;10484;48.736;9.332;2024-02-26T00:51:37;7.00;1.00
20650;DHT22;10484;48.736;9.332;2024-02-26T00:54:02;6.90;1.00
20650;DHT22;10484;48.736;9.332;2024-02-26T00:56:28;6.90;1.00
20650;DHT22;10484;48.736;9.332;2024-02-26T00:58:54;6.90;1.00
20650;DHT22;10484;48.736;9.332;2024-02-26T01:01:19;6.90;1.00
20650;DHT22;10484;48.736;9.332;2024-02-26T01:03:45;6.90;1.00
20650;DHT22;10484;48.736;9.332;2024-02-26T01:06:10;6.90;1.00
20650;DHT22;10484;48.736;9.332;2024-02-26T01:08:36;6.90;1.00
20650;DHT22;10484;48.736;9.332;2024-02-26T01:11:03;6.90;1.00
20650;DHT22;10484;48.736;9.332;2024-02-26T01:13:28;6.80;1.00
20650;DHT22;10484;48.736;9.332;2024-02-26T01:15:54;6.80;1.00
20650;DHT22;10484;48.736;9.332;2024-02-26T01:18:20;6.80;1.00
20650;DHT22;10484;48.736;9.332;2024-02-26T01:20:46;6.80;1.00
20650;DHT22;10484;48.736;9.332;2024-02-26T01:23:12;6.80;1.00
20650;DHT22;10484;48.736;9.332;2024-02-26T01:25:38;6.80;1.00
20650;DHT22;10484;48.736;9.332;2024-02-26T01:28:05;6.80;1.00
20650;DHT22;10484;48.736;9.332;2024-02-26T01:30:31;6.80;1.00
20650;DHT22;10484;48.736;9.332;2024-02-26T01:32:56;6.80;1.00
20650;DHT22;10484;48.736;9.332;2024-02-26T01:35:22;6.80;1.00
20650;DHT22;10484;48.736;9.332;2024-02-26T01:37:48;6.80;1.00
20650;DHT22;10484;48.736;9.332;2024-02-26T01:40:13;6.80;1.00
20650;DHT22;10484;48.736;9.332;2024-02-26T01:42:43;6.80;1.00
20650;DHT22;10484;48.736;9.332;2024-02-26T01:45:13;6.80;1.00
20650;DHT22;10484;48.736;9.332;2024-02-26T01:47:41;6.80;1.00
20650;DHT22;10484;48.736;9.332;2024-02-26T01:50:07;6.80;1.00
20650;DHT22;10484;48.736;9.332;2024-02-26T01:52:33;6.80;1.00
20650;DHT22;10484;48.736;9.332;2024-02-26T01:54:59;6.80;1.00
20650;DHT22;10484;48.736;9.332;2024-02-26T01:57:27;6.80;1.00
20650;DHT22;10484;48.736;9.332;2024-02-26T01:59:53;6.80;1.00
20650;DHT22;10484;48.736;9.332;2024-02-26T02:02:19;6.80;1.00
20650;DHT22;10484;48.736;9.332;2024-02-26T02:04:44;6.70;1.00
20650;DHT22;10484;48.736;9.332;2024-02-26T02:07:10;6.70;1.00
20650;DHT22;10484;48.736;9.332;2024-02-26T02:09:36;6.70;1.00
20650;DHT22;10484;48.736;9.332;2024-02-26T02:12:02;6.70;1.00
20650;DHT22;10484;48.736;9.332;2024-02-26T02:14:27;6.70;1.00
20650;DHT22;10484;48.736;9.332;2024-02-26T02:16:53;6.70;1.00
20650;DHT22;10484;48.736;9.332;2024-02-26T02:19:18;6.70;1.00
20650;DHT22;10484;48.736;9.332;2024-02-26T02:21:44;6.60;1.00
20650;DHT22;10484;48.736;9.332;2024-02-26T02:24:10;6.70;1.00
20650;DHT22;10484;48.736;9.332;2024-02-26T02:26:35;6.60;1.00
20650;DHT22;10484;48.736;9.332;2024-02-26T02:29:02;6.60;1.00
20650;DHT22;10484;48.736;9.332;2024-02-26T02:31:28;6.70;1.00
20650;DHT22;10484;48.736;9.332;2024-02-26T02:33:53;6.70;1.00
20650;DHT22;10484;48.736;9.332;2024-02-26T02:36:19;6.70;1.00
20650;DHT22;10484;48.736;9.332;2024-02-26T02:38:51;6.60;1.00
20650;DHT22;10484;48.736;9.332;2024-02-26T02:41:17;6.70;1.00
20650;DHT22;10484;48.736;9.332;2024-02-26T02:43:43;6.70;1.00
20650;DHT22;10484;48.736;9.332;2024-02-26T02:46:09;6.70;1.00
20650;DHT22;10484;48.736;9.332;2024-02-26T02:48:37;6.70;1.00
20650;DHT22;10484;48.736;9.332;2024-02-26T02:51:02;6.70;1.00
20650;DHT22;10484;48.736;9.332;2024-02-26T02:53:28;6.70;1.00
20650;DHT22;10484;48.736;9.332;2024-02-26T02:55:54;6.70;1.00
20650;DHT22;10484;48.736;9.332;2024-02-26T02:58:19;6.70;1.00
20650;DHT22;10484;48.736;9.332;2024-02-26T03:00:45;6.70;1.00
20650;DHT22;10484;48.736;9.332;2024-02-26T03:03:10;6.70;1.00
20650;DHT22;10484;48.736;9.332;2024-02-26T03:05:36;6.80;1.00
20650;DHT22;10484;48.736;9.332;2024-02-26T03:08:02;6.80;1.00
20650;DHT22;10484;48.736;9.332;2024-02-26T03:10:27;6.80;1.00
20650;DHT22;10484;48.736;9.332;2024-02-26T03:12:53;6.80;1.00
20650;DHT22;10484;48.736;9.332;2024-02-26T03:15:19;6.80;1.00
20650;DHT22;10484;48.736;9.332;2024-02-26T03:17:45;6.80;1.00
20650;DHT22;10484;48.736;9.332;2024-02-26T03:20:10;6.80;1.00
20650;DHT22;10484;48.736;9.332;2024-02-26T03:22:39;6.80;1.00
20650;DHT22;10484;48.736;9.332;2024-02-26T03:25:05;6.80;1.00
20650;DHT22;10484;48.736;9.332;2024-02-26T03:27:31;6.80;1.00
20650;DHT22;10484;48.736;9.332;2024-02-26T03:29:57;6.80;1.00
20650;DHT22;10484;48.736;9.332;2024-02-26T03:32:22;6.80;1.00
20650;DHT22;10484;48.736;9.332;2024-02-26T03:34:48;6.90;1.00
20650;DHT22;10484;48.736;9.332;2024-02-26T03:37:13;6.90;1.00
20650;DHT22;10484;48.736;9.332;2024-02-26T03:39:39;6.90;1.00
20650;DHT22;10484;48.736;9.332;2024-02-26T03:42:04;6.80;1.00
20650;DHT22;10484;48.736;9.332;2024-02-26T03:44:30;6.90;1.00
20650;DHT22;10484;48.736;9.332;2024-02-26T03:46:56;6.80;1.00
20650;DHT22;10484;48.736;9.332;2024-02-26T03:49:21;6.80;1.00
20650;DHT22;10484;48.736;9.332;2024-02-26T03:51:48;6.80;1.00
20650;DHT22;10484;48.736;9.332;2024-02-26T03:54:13;6.80;1.00
20650;DHT22;10484;48.736;9.332;2024-02-26T03:56:39;6.80;1.00
20650;DHT22;10484;48.736;9.332;2024-02-26T03:59:05;6.80;1.00
20650;DHT22;10484;48.736;9.332;2024-02-26T04:01:30;6.80;1.00
20650;DHT22;10484;48.736;9.332;2024-02-26T04:03:56;6.80;1.00
20650;DHT22;10484;48.736;9.332;2024-02-26T04:06:21;6.80;1.00
20650;DHT22;10484;48.736;9.332;2024-02-26T04:08:48;6.80;1.00
20650;DHT22;10484;48.736;9.332;2024-02-26T04:11:14;6.80;1.00
20650;DHT22;10484;48.736;9.332;2024-02-26T04:13:43;6.80;1.00
20650;DHT22;10484;48.736;9.332;2024-02-26T04:16:11;6.80;1.00
20650;DHT22;10484;48.736;9.332;2024-02-26T04:18:37;6.80;1.00
20650;DHT22;10484;48.736;9.332;2024-02-26T04:21:03;6.70;1.00
20650;DHT22;10484;48.736;9.332;2024-02-26T04:23:30;6.70;1.00
20650;DHT22;10484;48.736;9.332;2024-02-26T04:25:56;6.80;1.00
20650;DHT22;10484;48.736;9.332;2024-02-26T04:28:21;6.80;1.00
20650;DHT22;10484;48.736;9.332;2024-02-26T04:30:47;6.80;1.00
20650;DHT22;10484;48.736;9.332;2024-02-26T04:33:13;6.80;1.00
20650;DHT22;10484;48.736;9.332;2024-02-26T04:35:39;6.80;1.00
20650;DHT22;10484;48.736;9.332;2024-02-26T04:38:05;6.80;1.00
20650;DHT22;10484;48.736;9.332;2024-02-26T04:40:30;6.80;1.00
20650;DHT22;10484;48.736;9.332;2024-02-26T04:42:56;6.80;1.00
20650;DHT22;10484;48.736;9.332;2024-02-26T04:45:22;6.80;1.00
20650;DHT22;10484;48.736;9.332;2024-02-26T04:47:48;6.80;1.00
20650;DHT22;10484;48.736;9.332;2024-02-26T04:50:13;6.80;1.00
20650;DHT22;10484;48.736;9.332;2024-02-26T04:52:39;6.80;1.00
20650;DHT22;10484;48.736;9.332;2024-02-26T04:55:05;6.80;1.00
20650;DHT22;10484;48.736;9.332;2024-02-26T04:57:30;6.80;1.00
20650;DHT22;10484;48.736;9.332;2024-02-26T04:59:56;6.80;1.00
20650;DHT22;10484;48.736;9.332;2024-02-26T05:02:22;6.80;1.00
20650;DHT22;10484;48.736;9.332;2024-02-26T05:04:47;6.80;1.00
20650;DHT22;10484;48.736;9.332;2024-02-26T05:07:13;6.80;1.00
20650;DHT22;10484;48.736;9.332;2024-02-26T05:09:38;6.80;1.00
20650;DHT22;10484;48.736;9.332;2024-02-26T05:12:04;6.90;1.00
20650;DHT22;10484;48.736;9.332;2024-02-26T05:14:30;6.90;1.00
20650;DHT22;10484;48.736;9.332;2024-02-26T05:16:56;6.90;1.00
20650;DHT22;10484;48.736;9.332;2024-02-26T05:19:21;6.90;1.00
20650;DHT22;10484;48.736;9.332;2024-02-26T05:21:47;6.90;1.00
20650;DHT22;10484;48.736;9.332;2024-02-26T05:24:14;6.90;1.00
20650;DHT22;10484;48.736;9.332;2024-02-26T05:26:43;6.90;1.00
20650;DHT22;10484;48.736;9.332;2024-02-26T05:29:08;6.90;1.00
20650;DHT22;10484;48.736;9.332;2024-02-26T05:31:34;6.90;1.00
20650;DHT22;10484;48.736;9.332;2024-02-26T05:33:59;6.90;1.00
20650;DHT22;10484;48.736;9.332;2024-02-26T05:36:25;6.80;1.00
20650;DHT22;10484;48.736;9.332;2024-02-26T05:38:51;6.90;1.00
20650;DHT22;10484;48.736;9.332;2024-02-26T05:41:17;6.90;1.00
20650;DHT22;10484;48.736;9.332;2024-02-26T05:43:49;6.90;1.00
20650;DHT22;10484;48.736;9.332;2024-02-26T05:46:16;6.80;1.00
20650;DHT22;10484;48.736;9.332;2024-02-26T05:48:42;6.90;1.00
20650;DHT22;10484;48.736;9.332;2024-02-26T05:51:09;6.80;1.00
20650;DHT22;10484;48.736;9.332;2024-02-26T05:53:34;6.80;1.00
20650;DHT22;10484;48.736;9.332;2024-02-26T05:56:00;6.80;1.00
20650;DHT22;10484;48.736;9.332;2024-02-26T05:58:26;6.80;1.00
20650;DHT22;10484;48.736;9.332;2024-02-26T06:00:51;6.80;1.00
20650;DHT22;10484;48.736;9.332;2024-02-26T06:03:17;6.80;1.00
20650;DHT22;10484;48.736;9.332;2024-02-26T06:05:42;6.80;1.00
20650;DHT22;10484;48.736;9.332;2024-02-26T06:08:08;6.80;1.00
20650;DHT22;10484;48.736;9.332;2024-02-26T06:10:34;6.80;1.00
20650;DHT22;10484;48.736;9.332;2024-02-26T06:13:00;6.80;1.00
20650;DHT22;10484;48.736;9.332;2024-02-26T06:15:25;6.80;1.00
20650;DHT22;10484;48.736;9.332;2024-02-26T06:17:51;6.80;1.00
20650;DHT22;10484;48.736;9.332;2024-02-26T06:20:16;6.70;1.00
20650;DHT22;10484;48.736;9.332;2024-02-26T06:22:42;6.70;1.00
20650;DHT22;10484;48.736;9.332;2024-02-26T06:25:08;6.70;1.00
20650;DHT22;10484;48.736;9.332;2024-02-26T06:27:34;6.70;1.00
20650;DHT22;10484;48.736;9.332;2024-02-26T06:30:00;6.70;1.00
20650;DHT22;10484;48.736;9.332;2024-02-26T06:32:26;6.70;1.00
20650;DHT22;10484;48.736;9.332;2024-02-26T06:34:53;6.70;1.00
20650;DHT22;10484;48.736;9.332;2024-02-26T06:37:19;6.70;1.00
20650;DHT22;10484;48.736;9.332;2024-02-26T06:39:44;6.70;1.00
20650;DHT22;10484;48.736;9.332;2024-02-26T06:42:10;6.60;1.00
20650;DHT22;10484;48.736;9.332;2024-02-26T06:44:35;6.60;1.00
20650;DHT22;10484;48.736;9.332;2024-02-26T06:47:01;6.60;1.00
20650;DHT22;10484;48.736;9.332;2024-02-26T06:49:27;6.60;1.00
20650;DHT22;10484;48.736;9.332;2024-02-26T06:51:53;6.60;1.00
20650;DHT22;10484;48.736;9.332;2024-02-26T06:54:19;6.60;1.00
20650;DHT22;10484;48.736;9.332;2024-02-26T06:56:45;6.60;1.00
20650;DHT22;10484;48.736;9.332;2024-02-26T06:59:10;6.60;1.00
20650;DHT22;10484;48.736;9.332;2024-02-26T07:01:36;6.60;1.00
20650;DHT22;10484;48.736;9.332;2024-02-26T07:04:02;6.60;1.00
20650;DHT22;10484;48.736;9.332;2024-02-26T07:06:28;6.60;1.00
20650;DHT22;10484;48.736;9.332;2024-02-26T07:08:53;6.60;1.00
20650;DHT22;10484;48.736;9.332;2024-02-26T07:11:19;6.60;1.00
20650;DHT22;10484;48.736;9.332;2024-02-26T07:13:46;6.60;1.00
20650;DHT22;10484;48.736;9.332;2024-02-26T07:16:11;6.70;1.00
20650;DHT22;10484;48.736;9.332;2024-02-26T07:18:39;6.70;1.00
20650;DHT22;10484;48.736;9.332;2024-02-26T07:21:05;6.70;1.00
20650;DHT22;10484;48.736;9.332;2024-02-26T07:23:31;6.70;1.00
20650;DHT22;10484;48.736;9.332;2024-02-26T07:25:57;6.70;1.00
20650;DHT22;10484;48.736;9.332;2024-02-26T07:28:23;6.70;1.00
20650;DHT22;10484;48.736;9.332;2024-02-26T07:30:49;6.80;1.00
20650;DHT22;10484;48.736;9.332;2024-02-26T07:33:15;6.80;1.00
20650;DHT22;10484;48.736;9.332;2024-02-26T07:35:40;6.80;1.00
20650;DHT22;10484;48.736;9.332;2024-02-26T07:38:06;6.90;1.00
20650;DHT22;10484;48.736;9.332;2024-02-26T07:40:31;6.90;1.00
20650;DHT22;10484;48.736;9.332;2024-02-26T07:42:57;6.90;1.00
20650;DHT22;10484;48.736;9.332;2024-02-26T07:45:23;6.90;1.00
20650;DHT22;10484;48.736;9.332;2024-02-26T07:47:48;6.90;1.00
20650;DHT22;10484;48.736;9.332;2024-02-26T07:50:14;6.90;1.00
20650;DHT22;10484;48.736;9.332;2024-02-26T07:52:40;7.00;1.00
20650;DHT22;10484;48.736;9.332;2024-02-26T07:55:06;7.00;1.00
20650;DHT22;10484;48.736;9.332;2024-02-26T07:57:35;7.00;1.00
20650;DHT22;10484;48.736;9.332;2024-02-26T08:00:04;7.00;1.00
20650;DHT22;10484;48.736;9.332;2024-02-26T08:02:32;7.00;1.00
20650;DHT22;10484;48.736;9.332;2024-02-26T08:04:59;7.10;1.00
20650;DHT22;10484;48.736;9.332;2024-02-26T08:07:25;7.10;1.00
20650;DHT22;10484;48.736;9.332;2024-02-26T08:09:50;7.10;1.00
20650;DHT22;10484;48.736;9.332;2024-02-26T08:12:16;7.10;1.00
20650;DHT22;10484;48.736;9.332;2024-02-26T08:14:42;7.10;1.00
20650;DHT22;10484;48.736;9.332;2024-02-26T08:17:09;7.10;1.00
20650;DHT22;10484;48.736;9.332;2024-02-26T08:19:34;7.20;1.00
20650;DHT22;10484;48.736;9.332;2024-02-26T08:22:01;7.10;1.00
20650;DHT22;10484;48.736;9.332;2024-02-26T08:24:27;7.20;1.00
20650;DHT22;10484;48.736;9.332;2024-02-26T08:26:52;7.20;1.00
20650;DHT22;10484;48.736;9.332;2024-02-26T08:29:18;7.30;1.00
20650;DHT22;10484;48.736;9.332;2024-02-26T08:31:43;7.20;1.00
20650;DHT22;10484;48.736;9.332;2024-02-26T08:34:09;7.20;1.00
20650;DHT22;10484;48.736;9.332;2024-02-26T08:36:35;7.30;1.00
20650;DHT22;10484;48.736;9.332;2024-02-26T08:39:00;7.30;1.00
20650;DHT22;10484;48.736;9.332;2024-02-26T08:41:26;7.40;1.00
20650;DHT22;10484;48.736;9.332;2024-02-26T08:43:52;7.40;1.00
20650;DHT22;10484;48.736;9.332;2024-02-26T08:46:17;7.30;1.00
20650;DHT22;10484;48.736;9.332;2024-02-26T08:48:43;7.40;1.00
20650;DHT22;10484;48.736;9.332;2024-02-26T08:51:09;7.40;1.00
20650;DHT22;10484;48.736;9.332;2024-02-26T08:53:35;7.40;1.00
20650;DHT22;10484;48.736;9.332;2024-02-26T08:56:01;7.40;1.00
20650;DHT22;10484;48.736;9.332;2024-02-26T08:58:30;7.50;1.00
20650;DHT22;10484;48.736;9.332;2024-02-26T09:00:55;7.60;1.00
20650;DHT22;10484;48.736;9.332;2024-02-26T09:03:21;7.60;1.00
20650;DHT22;10484;48.736;9.332;2024-02-26T09:05:47;7.60;1.00
20650;DHT22;10484;48.736;9.332;2024-02-26T09:08:13;7.60;1.00
20650;DHT22;10484;48.736;9.332;2024-02-26T09:10:39;7.60;1.00
20650;DHT22;10484;48.736;9.332;2024-02-26T09:13:05;7.60;1.00
20650;DHT22;10484;48.736;9.332;2024-02-26T09:15:31;7.70;1.00
20650;DHT22;10484;48.736;9.332;2024-02-26T09:17:57;7.70;1.00
20650;DHT22;10484;48.736;9.332;2024-02-26T09:20:22;7.70;1.00
20650;DHT22;10484;48.736;9.332;2024-02-26T09:22:49;7.70;1.00
20650;DHT22;10484;48.736;9.332;2024-02-26T09:25:16;7.70;1.00
20650;DHT22;10484;48.736;9.332;2024-02-26T09:27:42;7.70;1.00
20650;DHT22;10484;48.736;9.332;2024-02-26T09:30:12;7.80;1.00
20650;DHT22;10484;48.736;9.332;2024-02-26T09:32:38;7.80;1.00
20650;DHT22;10484;48.736;9.332;2024-02-26T09:35:04;7.90;1.00
20650;DHT22;10484;48.736;9.332;2024-02-26T09:37:30;8.00;1.00
20650;DHT22;10484;48.736;9.332;2024-02-26T09:39:55;8.00;1.00
20650;DHT22;10484;48.736;9.332;2024-02-26T09:42:22;8.10;1.00
20650;DHT22;10484;48.736;9.332;2024-02-26T09:44:53;8.10;1.00
20650;DHT22;10484;48.736;9.332;2024-02-26T09:47:19;8.10;1.00
20650;DHT22;10484;48.736;9.332;2024-02-26T09:49:47;8.10;1.00
20650;DHT22;10484;48.736;9.332;2024-02-26T09:52:15;8.10;1.00
20650;DHT22;10484;48.736;9.332;2024-02-26T09:54:41;8.20;1.00
20650;DHT22;10484;48.736;9.332;2024-02-26T09:57:09;8.20;1.00
20650;DHT22;10484;48.736;9.332;2024-02-26T09:59:41;8.20;1.00
20650;DHT22;10484;48.736;9.332;2024-02-26T10:02:14;8.30;1.00
20650;DHT22;10484;48.736;9.332;2024-02-26T10:04:41;8.40;1.00
20650;DHT22;10484;48.736;9.332;2024-02-26T10:07:11;8.40;1.00
20650;DHT22;10484;48.736;9.332;2024-02-26T10:09:37;8.40;1.00
20650;DHT22;10484;48.736;9.332;2024-02-26T10:12:04;8.50;1.00
20650;DHT22;10484;48.736;9.332;2024-02-26T10:14:30;8.40;1.00
20650;DHT22;10484;48.736;9.332;2024-02-26T10:16:56;8.50;1.00
20650;DHT22;10484;48.736;9.332;2024-02-26T10:19:29;8.50;1.00
20650;DHT22;10484;48.736;9.332;2024-02-26T10:21:59;8.60;1.00
20650;DHT22;10484;48.736;9.332;2024-02-26T10:24:26;8.70;1.00
20650;DHT22;10484;48.736;9.332;2024-02-26T10:26:52;8.70;1.00
20650;DHT22;10484;48.736;9.332;2024-02-26T10:29:20;8.70;1.00
20650;DHT22;10484;48.736;9.332;2024-02-26T10:31:46;8.80;1.00
20650;DHT22;10484;48.736;9.332;2024-02-26T10:34:13;8.80;1.00
20650;DHT22;10484;48.736;9.332;2024-02-26T10:36:39;8.80;1.00
20650;DHT22;10484;48.736;9.332;2024-02-26T10:39:06;8.90;1.00
20650;DHT22;10484;48.736;9.332;2024-02-26T10:41:35;8.90;1.00
20650;DHT22;10484;48.736;9.332;2024-02-26T10:44:01;9.00;1.00
20650;DHT22;10484;48.736;9.332;2024-02-26T10:46:27;9.00;1.00
20650;DHT22;10484;48.736;9.332;2024-02-26T10:48:53;9.10;1.00
20650;DHT22;10484;48.736;9.332;2024-02-26T10:51:37;9.20;1.00
20650;DHT22;10484;48.736;9.332;2024-02-26T10:54:04;9.20;1.00
20650;DHT22;10484;48.736;9.332;2024-02-26T10:56:34;9.30;1.00
20650;DHT22;10484;48.736;9.332;2024-02-26T10:59:00;9.40;1.00
20650;DHT22;10484;48.736;9.332;2024-02-26T11:01:27;9.50;1.00
20650;DHT22;10484;48.736;9.332;2024-02-26T11:03:57;9.60;1.00
20650;DHT22;10484;48.736;9.332;2024-02-26T11:06:26;9.60;1.00
20650;DHT22;10484;48.736;9.332;2024-02-26T11:08:53;9.60;1.00
20650;DHT22;10484;48.736;9.332;2024-02-26T11:11:19;9.70;1.00
20650;DHT22;10484;48.736;9.332;2024-02-26T11:13:47;9.70;1.00
20650;DHT22;10484;48.736;9.332;2024-02-26T11:16:20;9.70;1.00
20650;DHT22;10484;48.736;9.332;2024-02-26T11:18:47;9.70;1.00
20650;DHT22;10484;48.736;9.332;2024-02-26T11:21:15;9.80;1.00
20650;DHT22;10484;48.736;9.332;2024-02-26T11:23:42;9.80;1.00
20650;DHT22;10484;48.736;9.332;2024-02-26T11:26:10;9.80;1.00
20650;DHT22;10484;48.736;9.332;2024-02-26T11:28:37;9.90;1.00
20650;DHT22;10484;48.736;9.332;2024-02-26T11:31:04;10.00;1.00
20650;DHT22;10484;48.736;9.332;2024-02-26T11:33:31;10.10;1.00
20650;DHT22;10484;48.736;9.332;2024-02-26T11:35:57;10.10;1.00
20650;DHT22;10484;48.736;9.332;2024-02-26T11:38:25;10.10;1.00
20650;DHT22;10484;48.736;9.332;2024-02-26T11:40:53;10.10;1.00
20650;DHT22;10484;48.736;9.332;2024-02-26T11:43:22;10.20;1.00
20650;DHT22;10484;48.736;9.332;2024-02-26T11:45:49;10.30;1.00
20650;DHT22;10484;48.736;9.332;2024-02-26T11:48:23;10.40;1.00
20650;DHT22;10484;48.736;9.332;2024-02-26T11:50:55;10.40;1.00
20650;DHT22;10484;48.736;9.332;2024-02-26T11:53:30;10.40;1.00
20650;DHT22;10484;48.736;9.332;2024-02-26T11:59:09;10.50;1.00
20650;DHT22;10484;48.736;9.332;2024-02-26T12:04:05;10.50;1.00
20650;DHT22;10484;48.736;9.332;2024-02-26T12:06:31;10.60;1.00
20650;DHT22;10484;48.736;9.332;2024-02-26T12:09:05;10.70;1.00
20650;DHT22;10484;48.736;9.332;2024-02-26T12:11:31;10.70;1.00
20650;DHT22;10484;48.736;9.332;2024-02-26T12:13:56;10.80;1.00
20650;DHT22;10484;48.736;9.332;2024-02-26T12:16:35;10.90;1.00
20650;DHT22;10484;48.736;9.332;2024-02-26T12:19:04;10.90;1.00
20650;DHT22;10484;48.736;9.332;2024-02-26T12:21:31;11.00;1.00
20650;DHT22;10484;48.736;9.332;2024-02-26T12:24:13;11.00;1.00
20650;DHT22;10484;48.736;9.332;2024-02-26T12:26:40;11.10;1.00
20650;DHT22;10484;48.736;9.332;2024-02-26T12:29:06;11.20;1.00
20650;DHT22;10484;48.736;9.332;2024-02-26T12:31:32;11.20;1.00
20650;DHT22;10484;48.736;9.332;2024-02-26T12:34:02;11.30;1.00
20650;DHT22;10484;48.736;9.332;2024-02-26T12:36:27;11.40;1.00
20650;DHT22;10484;48.736;9.332;2024-02-26T12:38:53;11.50;1.00
20650;DHT22;10484;48.736;9.332;2024-02-26T12:41:20;11.50;1.00
20650;DHT22;10484;48.736;9.332;2024-02-26T12:43:46;11.60;1.00
20650;DHT22;10484;48.736;9.332;2024-02-26T12:46:12;11.70;1.00
20650;DHT22;10484;48.736;9.332;2024-02-26T12:48:39;11.70;1.00
20650;DHT22;10484;48.736;9.332;2024-02-26T12:51:05;11.70;1.00
20650;DHT22;10484;48.736;9.332;2024-02-26T12:53:31;11.80;1.00
20650;DHT22;10484;48.736;9.332;2024-02-26T12:55:57;11.80;1.00
20650;DHT22;10484;48.736;9.332;2024-02-26T12:58:23;11.90;1.00
20650;DHT22;10484;48.736;9.332;2024-02-26T13:00:54;11.90;1.00
20650;DHT22;10484;48.736;9.332;2024-02-26T13:03:20;12.00;1.00
20650;DHT22;10484;48.736;9.332;2024-02-26T13:05:47;12.10;1.00
20650;DHT22;10484;48.736;9.332;2024-02-26T13:08:22;12.10;1.00
20650;DHT22;10484;48.736;9.332;2024-02-26T13:10:49;12.20;1.00
20650;DHT22;10484;48.736;9.332;2024-02-26T13:13:19;12.20;1.00
20650;DHT22;10484;48.736;9.332;2024-02-26T13:15:45;12.30;1.00
20650;DHT22;10484;48.736;9.332;2024-02-26T13:18:13;12.30;1.00
20650;DHT22;10484;48.736;9.332;2024-02-26T13:20:39;12.40;1.00
20650;DHT22;10484;48.736;9.332;2024-02-26T13:23:11;12.50;1.00
20650;DHT22;10484;48.736;9.332;2024-02-26T13:25:37;12.50;1.00
20650;DHT22;10484;48.736;9.332;2024-02-26T13:28:08;12.50;1.00
20650;DHT22;10484;48.736;9.332;2024-02-26T13:30:34;12.50;1.00
20650;DHT22;10484;48.736;9.332;2024-02-26T13:33:13;12.50;1.00
20650;DHT22;10484;48.736;9.332;2024-02-26T13:35:39;12.60;1.00
20650;DHT22;10484;48.736;9.332;2024-02-26T13:38:05;12.70;1.00
20650;DHT22;10484;48.736;9.332;2024-02-26T13:40:34;12.80;1.00
20650;DHT22;10484;48.736;9.332;2024-02-26T13:43:00;12.90;1.00
20650;DHT22;10484;48.736;9.332;2024-02-26T13:45:26;12.90;1.00
20650;DHT22;10484;48.736;9.332;2024-02-26T13:47:52;12.80;1.00
20650;DHT22;10484;48.736;9.332;2024-02-26T13:50:18;12.80;1.00
20650;DHT22;10484;48.736;9.332;2024-02-26T13:52:47;12.90;1.00
20650;DHT22;10484;48.736;9.332;2024-02-26T13:55:13;12.90;1.00
20650;DHT22;10484;48.736;9.332;2024-02-26T13:57:40;12.90;1.00
20650;DHT22;10484;48.736;9.332;2024-02-26T14:00:07;13.00;1.00
20650;DHT22;10484;48.736;9.332;2024-02-26T14:02:33;13.00;1.00
20650;DHT22;10484;48.736;9.332;2024-02-26T14:05:02;13.00;1.00
20650;DHT22;10484;48.736;9.332;2024-02-26T14:07:29;13.00;1.00
20650;DHT22;10484;48.736;9.332;2024-02-26T14:09:57;13.00;1.00
20650;DHT22;10484;48.736;9.332;2024-02-26T14:12:23;13.10;1.00
20650;DHT22;10484;48.736;9.332;2024-02-26T14:14:48;13.20;1.00
20650;DHT22;10484;48.736;9.332;2024-02-26T14:17:14;13.30;1.00
20650;DHT22;10484;48.736;9.332;2024-02-26T14:19:41;13.30;1.00
20650;DHT22;10484;48.736;9.332;2024-02-26T14:22:12;13.30;1.00
20650;DHT22;10484;48.736;9.332;2024-02-26T14:24:38;13.30;1.00
20650;DHT22;10484;48.736;9.332;2024-02-26T14:27:06;13.40;1.00
20650;DHT22;10484;48.736;9.332;2024-02-26T14:29:33;13.40;1.00
20650;DHT22;10484;48.736;9.332;2024-02-26T14:31:58;13.40;1.00
20650;DHT22;10484;48.736;9.332;2024-02-26T14:34:24;13.40;1.00
20650;DHT22;10484;48.736;9.332;2024-02-26T14:36:49;13.40;1.00
20650;DHT22;10484;48.736;9.332;2024-02-26T14:39:15;13.50;1.00
20650;DHT22;10484;48.736;9.332;2024-02-26T14:41:41;13.50;1.00
20650;DHT22;10484;48.736;9.332;2024-02-26T14:44:06;13.50;1.00
20650;DHT22;10484;48.736;9.332;2024-02-26T14:46:32;13.50;1.00
20650;DHT22;10484;48.736;9.332;2024-02-26T14:48:58;13.50;1.00
20650;DHT22;10484;48.736;9.332;2024-02-26T14:51:23;13.50;1.00
20650;DHT22;10484;48.736;9.332;2024-02-26T14:53:49;13.50;1.00
20650;DHT22;10484;48.736;9.332;2024-02-26T14:56:15;13.50;1.00
20650;DHT22;10484;48.736;9.332;2024-02-26T14:58:40;13.50;1.00
20650;DHT22;10484;48.736;9.332;2024-02-26T15:01:06;13.50;1.00
20650;DHT22;10484;48.736;9.332;2024-02-26T15:03:32;13.50;1.00
20650;DHT22;10484;48.736;9.332;2024-02-26T15:05:58;13.50;1.00
20650;DHT22;10484;48.736;9.332;2024-02-26T15:08:23;13.50;1.00
20650;DHT22;10484;48.736;9.332;2024-02-26T15:10:49;13.50;1.00
20650;DHT22;10484;48.736;9.332;2024-02-26T15:13:15;13.50;1.00
20650;DHT22;10484;48.736;9.332;2024-02-26T15:15:41;13.50;1.00
20650;DHT22;10484;48.736;9.332;2024-02-26T15:18:08;13.50;1.00
20650;DHT22;10484;48.736;9.332;2024-02-26T15:20:37;13.40;1.00
20650;DHT22;10484;48.736;9.332;2024-02-26T15:23:04;13.50;1.00
20650;DHT22;10484;48.736;9.332;2024-02-26T15:25:29;13.40;1.00
20650;DHT22;10484;48.736;9.332;2024-02-26T15:27:55;13.50;1.00
20650;DHT22;10484;48.736;9.332;2024-02-26T15:30:21;13.50;1.00
20650;DHT22;10484;48.736;9.332;2024-02-26T15:32:46;13.40;1.00
20650;DHT22;10484;48.736;9.332;2024-02-26T15:35:12;13.30;1.00
20650;DHT22;10484;48.736;9.332;2024-02-26T15:37:37;13.30;1.00
20650;DHT22;10484;48.736;9.332;2024-02-26T15:40:04;13.30;1.00
20650;DHT22;10484;48.736;9.332;2024-02-26T15:42:32;13.30;1.00
20650;DHT22;10484;48.736;9.332;2024-02-26T15:44:58;13.20;1.00
20650;DHT22;10484;48.736;9.332;2024-02-26T15:47:23;13.20;1.00
20650;DHT22;10484;48.736;9.332;2024-02-26T15:49:49;13.20;1.00
20650;DHT22;10484;48.736;9.332;2024-02-26T15:52:14;13.20;1.00
20650;DHT22;10484;48.736;9.332;2024-02-26T15:54:40;13.10;1.00
20650;DHT22;10484;48.736;9.332;2024-02-26T15:57:06;13.10;1.00